Terminal Aerodrome Forecast
Issued by NWS

Home | Current Version | Previous Version | Text Only | Print | Product List | Glossary On
Versions: 1 2 3 4 5 6 7 8 9 10 11 12 13 14 15
000
FTAK31 PAJN 112300
TAFAJN
TAF
PAJN 112329Z 1200/1224 08008KT 6SM -RA BR SCT025 OVC050
     FM120500 09008KT 5SM -RA BR SCT020 OVC030
     FM120900 09006KT 4SM -RA BR BKN018 OVC025
     FM122000 11008KT 6SM -RA BR SCT018 OVC028=

USA.gov is the U.S. government's official web portal to all federal, state and local government web resources and services.